sensor_id;sensor_type;location;lat;lon;timestamp;pressure;altitude;pressure_sealevel;temperature;humidity
74065;BME280;62421;51.412;5.432;2023-04-25T00:00:56;100994.31;;;5.68;100.00
74065;BME280;62421;51.412;5.432;2023-04-25T00:03:22;100996.97;;;5.68;100.00
74065;BME280;62421;51.412;5.432;2023-04-25T00:05:50;100988.19;;;5.66;100.00
74065;BME280;62421;51.412;5.432;2023-04-25T00:08:16;100995.31;;;5.66;100.00
74065;BME280;62421;51.412;5.432;2023-04-25T00:10:42;100997.09;;;5.65;100.00
74065;BME280;62421;51.412;5.432;2023-04-25T00:13:08;101004.25;;;5.65;100.00
74065;BME280;62421;51.412;5.432;2023-04-25T00:15:33;101009.63;;;5.63;100.00
74065;BME280;62421;51.412;5.432;2023-04-25T00:17:59;101001.63;;;5.63;100.00
74065;BME280;62421;51.412;5.432;2023-04-25T00:20:25;101001.63;;;5.63;100.00
74065;BME280;62421;51.412;5.432;2023-04-25T00:22:50;101009.72;;;5.62;100.00
74065;BME280;62421;51.412;5.432;2023-04-25T00:25:17;101019.66;;;5.58;100.00
74065;BME280;62421;51.412;5.432;2023-04-25T00:27:43;101020.72;;;5.54;100.00
74065;BME280;62421;51.412;5.432;2023-04-25T00:30:08;101007.56;;;5.51;100.00
74065;BME280;62421;51.412;5.432;2023-04-25T00:32:34;101012.16;;;5.47;100.00
74065;BME280;62421;51.412;5.432;2023-04-25T00:35:00;101007.91;;;5.43;100.00
74065;BME280;62421;51.412;5.432;2023-04-25T00:37:25;101016.06;;;5.40;100.00
74065;BME280;62421;51.412;5.432;2023-04-25T00:39:51;101012.59;;;5.38;100.00
74065;BME280;62421;51.412;5.432;2023-04-25T00:42:18;101007.09;;;5.41;100.00
74065;BME280;62421;51.412;5.432;2023-04-25T00:44:44;101009.78;;;5.41;100.00
74065;BME280;62421;51.412;5.432;2023-04-25T00:47:11;101000.94;;;5.41;100.00
74065;BME280;62421;51.412;5.432;2023-04-25T00:49:36;101001.94;;;5.38;100.00
74065;BME280;62421;51.412;5.432;2023-04-25T00:52:01;101006.53;;;5.34;100.00
74065;BME280;62421;51.412;5.432;2023-04-25T00:54:27;101003.06;;;5.32;100.00
74065;BME280;62421;51.412;5.432;2023-04-25T00:56:52;100996.16;;;5.28;100.00
74065;BME280;62421;51.412;5.432;2023-04-25T00:59:19;101000.69;;;5.26;100.00
74065;BME280;62421;51.412;5.432;2023-04-25T01:01:45;101008.09;;;5.20;100.00
74065;BME280;62421;51.412;5.432;2023-04-25T01:04:10;101004.78;;;5.15;100.00
74065;BME280;62421;51.412;5.432;2023-04-25T01:06:36;101006.66;;;5.12;100.00
74065;BME280;62421;51.412;5.432;2023-04-25T01:09:02;101010.22;;;5.11;100.00
74065;BME280;62421;51.412;5.432;2023-04-25T01:11:27;101003.03;;;5.13;100.00
74065;BME280;62421;51.412;5.432;2023-04-25T01:13:53;101007.44;;;5.15;100.00
74065;BME280;62421;51.412;5.432;2023-04-25T01:16:18;101003.03;;;5.13;100.00
74065;BME280;62421;51.412;5.432;2023-04-25T01:18:45;101004.91;;;5.11;100.00
74065;BME280;62421;51.412;5.432;2023-04-25T01:21:12;100999.72;;;5.08;100.00
74065;BME280;62421;51.412;5.432;2023-04-25T01:23:41;101009.63;;;5.05;100.00
74065;BME280;62421;51.412;5.432;2023-04-25T01:26:11;101005.53;;;4.98;100.00
74065;BME280;62421;51.412;5.432;2023-04-25T01:28:37;101012.13;;;4.89;100.00
74065;BME280;62421;51.412;5.432;2023-04-25T01:31:06;101008.91;;;4.81;100.00
74065;BME280;62421;51.412;5.432;2023-04-25T01:33:32;101013.72;;;4.72;100.00
74065;BME280;62421;51.412;5.432;2023-04-25T01:35:57;101017.56;;;4.65;100.00
74065;BME280;62421;51.412;5.432;2023-04-25T01:38:23;101016.03;;;4.60;100.00
74065;BME280;62421;51.412;5.432;2023-04-25T01:40:49;101026.13;;;4.51;100.00
74065;BME280;62421;51.412;5.432;2023-04-25T01:43:16;101018.41;;;4.45;100.00
74065;BME280;62421;51.412;5.432;2023-04-25T01:45:41;101014.25;;;4.38;100.00
74065;BME280;62421;51.412;5.432;2023-04-25T01:48:08;101016.25;;;4.33;100.00
74065;BME280;62421;51.412;5.432;2023-04-25T01:50:33;101019.13;;;4.28;100.00
74065;BME280;62421;51.412;5.432;2023-04-25T01:52:59;101021.03;;;4.25;100.00
74065;BME280;62421;51.412;5.432;2023-04-25T01:55:25;101020.28;;;4.21;100.00
74065;BME280;62421;51.412;5.432;2023-04-25T01:57:50;101022.25;;;4.16;100.00
74065;BME280;62421;51.412;5.432;2023-04-25T02:00:16;101030.38;;;4.13;100.00
74065;BME280;62421;51.412;5.432;2023-04-25T02:02:41;101026.91;;;4.11;100.00
74065;BME280;62421;51.412;5.432;2023-04-25T02:05:07;101032.28;;;4.09;100.00
74065;BME280;62421;51.412;5.432;2023-04-25T02:07:32;101026.97;;;4.09;100.00
74065;BME280;62421;51.412;5.432;2023-04-25T02:09:57;101028.53;;;4.15;100.00
74065;BME280;62421;51.412;5.432;2023-04-25T02:12:23;101027.44;;;4.19;100.00
74065;BME280;62421;51.412;5.432;2023-04-25T02:14:49;101037.03;;;4.23;100.00
74065;BME280;62421;51.412;5.432;2023-04-25T02:17:15;101038.53;;;4.30;100.00
74065;BME280;62421;51.412;5.432;2023-04-25T02:19:41;101027.66;;;4.37;100.00
74065;BME280;62421;51.412;5.432;2023-04-25T02:22:06;101039.81;;;4.42;100.00
74065;BME280;62421;51.412;5.432;2023-04-25T02:24:32;101045.81;;;4.47;100.00
74065;BME280;62421;51.412;5.432;2023-04-25T02:26:58;101043.75;;;4.54;100.00
74065;BME280;62421;51.412;5.432;2023-04-25T02:29:24;101042.56;;;4.61;100.00
74065;BME280;62421;51.412;5.432;2023-04-25T02:31:49;101048.53;;;4.66;100.00
74065;BME280;62421;51.412;5.432;2023-04-25T02:34:14;101041.31;;;4.70;100.00
74065;BME280;62421;51.412;5.432;2023-04-25T02:36:40;101049.22;;;4.71;100.00
74065;BME280;62421;51.412;5.432;2023-04-25T02:39:06;101044.63;;;4.75;100.00
74065;BME280;62421;51.412;5.432;2023-04-25T02:41:31;101045.50;;;4.76;100.00
74065;BME280;62421;51.412;5.432;2023-04-25T02:43:57;101042.91;;;4.74;100.00
74065;BME280;62421;51.412;5.432;2023-04-25T02:46:22;101048.34;;;4.71;100.00
74065;BME280;62421;51.412;5.432;2023-04-25T02:48:47;101051.28;;;4.65;100.00
74065;BME280;62421;51.412;5.432;2023-04-25T02:51:13;101047.09;;;4.59;100.00
74065;BME280;62421;51.412;5.432;2023-04-25T02:53:39;101049.94;;;4.55;100.00
74065;BME280;62421;51.412;5.432;2023-04-25T02:56:04;101051.00;;;4.50;100.00
74065;BME280;62421;51.412;5.432;2023-04-25T02:58:30;101043.00;;;4.50;100.00
74065;BME280;62421;51.412;5.432;2023-04-25T03:00:55;101041.22;;;4.51;100.00
74065;BME280;62421;51.412;5.432;2023-04-25T03:03:21;101040.34;;;4.50;100.00
74065;BME280;62421;51.412;5.432;2023-04-25T03:05:52;101041.25;;;4.49;100.00
74065;BME280;62421;51.412;5.432;2023-04-25T03:08:17;101044.00;;;4.48;100.00
74065;BME280;62421;51.412;5.432;2023-04-25T03:10:44;101042.22;;;4.48;100.00
74065;BME280;62421;51.412;5.432;2023-04-25T03:13:09;101036.91;;;4.48;100.00
74065;BME280;62421;51.412;5.432;2023-04-25T03:15:36;101049.38;;;4.46;100.00
74065;BME280;62421;51.412;5.432;2023-04-25T03:18:01;101053.84;;;4.46;100.00
74065;BME280;62421;51.412;5.432;2023-04-25T03:20:27;101047.66;;;4.45;100.00
74065;BME280;62421;51.412;5.432;2023-04-25T03:22:52;101058.22;;;4.47;100.00
74065;BME280;62421;51.412;5.432;2023-04-25T03:25:18;101055.66;;;4.45;100.00
74065;BME280;62421;51.412;5.432;2023-04-25T03:27:43;101064.47;;;4.46;100.00
74065;BME280;62421;51.412;5.432;2023-04-25T03:30:09;101051.25;;;4.44;100.00
74065;BME280;62421;51.412;5.432;2023-04-25T03:32:34;101053.97;;;4.43;100.00
74065;BME280;62421;51.412;5.432;2023-04-25T03:35:00;101060.16;;;4.43;100.00
74065;BME280;62421;51.412;5.432;2023-04-25T03:37:25;101063.63;;;4.45;100.00
74065;BME280;62421;51.412;5.432;2023-04-25T03:39:51;101062.63;;;4.48;100.00
74065;BME280;62421;51.412;5.432;2023-04-25T03:42:16;101058.13;;;4.50;100.00
74065;BME280;62421;51.412;5.432;2023-04-25T03:44:42;101055.44;;;4.50;100.00
74065;BME280;62421;51.412;5.432;2023-04-25T03:47:08;101058.97;;;4.50;100.00
74065;BME280;62421;51.412;5.432;2023-04-25T03:49:34;101056.38;;;4.49;100.00
74065;BME280;62421;51.412;5.432;2023-04-25T03:52:01;101055.44;;;4.50;100.00
74065;BME280;62421;51.412;5.432;2023-04-25T03:54:28;101046.59;;;4.49;100.00
74065;BME280;62421;51.412;5.432;2023-04-25T03:56:53;101064.22;;;4.52;100.00
74065;BME280;62421;51.412;5.432;2023-04-25T03:59:18;101063.34;;;4.51;100.00
74065;BME280;62421;51.412;5.432;2023-04-25T04:01:44;101061.56;;;4.52;100.00
74065;BME280;62421;51.412;5.432;2023-04-25T04:04:09;101067.59;;;4.56;100.00
74065;BME280;62421;51.412;5.432;2023-04-25T04:06:35;101074.63;;;4.58;100.00
74065;BME280;62421;51.412;5.432;2023-04-25T04:09:02;101072.69;;;4.62;100.00
74065;BME280;62421;51.412;5.432;2023-04-25T04:11:28;101076.13;;;4.64;100.00
74065;BME280;62421;51.412;5.432;2023-04-25T04:13:53;101069.91;;;4.65;100.00
74065;BME280;62421;51.412;5.432;2023-04-25T04:16:19;101071.63;;;4.66;100.00
74065;BME280;62421;51.412;5.432;2023-04-25T04:18:45;101073.38;;;4.67;100.00
74065;BME280;62421;51.412;5.432;2023-04-25T04:21:10;101079.50;;;4.69;100.00
74065;BME280;62421;51.412;5.432;2023-04-25T04:23:36;101077.75;;;4.68;100.00
74065;BME280;62421;51.412;5.432;2023-04-25T04:26:02;101079.50;;;4.69;100.00
74065;BME280;62421;51.412;5.432;2023-04-25T04:28:27;101084.81;;;4.69;100.00
74065;BME280;62421;51.412;5.432;2023-04-25T04:30:53;101091.78;;;4.71;100.00
74065;BME280;62421;51.412;5.432;2023-04-25T04:33:18;101086.38;;;4.73;100.00
74065;BME280;62421;51.412;5.432;2023-04-25T04:35:45;101087.19;;;4.75;100.00
74065;BME280;62421;51.412;5.432;2023-04-25T04:38:12;101088.09;;;4.76;100.00
74065;BME280;62421;51.412;5.432;2023-04-25T04:40:37;101101.38;;;4.76;100.00
74065;BME280;62421;51.412;5.432;2023-04-25T04:43:03;101096.88;;;4.78;100.00
74065;BME280;62421;51.412;5.432;2023-04-25T04:45:28;101103.84;;;4.80;100.00
74065;BME280;62421;51.412;5.432;2023-04-25T04:47:54;101110.81;;;4.83;100.00
74065;BME280;62421;51.412;5.432;2023-04-25T04:50:20;101107.22;;;4.84;100.00
74065;BME280;62421;51.412;5.432;2023-04-25T04:52:46;101101.78;;;4.87;100.00
74065;BME280;62421;51.412;5.432;2023-04-25T04:55:11;101106.91;;;4.91;100.00
74065;BME280;62421;51.412;5.432;2023-04-25T04:57:36;101109.38;;;4.96;100.00
74065;BME280;62421;51.412;5.432;2023-04-25T05:00:04;101106.59;;;4.99;100.00
74065;BME280;62421;51.412;5.432;2023-04-25T05:02:30;101113.59;;;5.02;100.00
74065;BME280;62421;51.412;5.432;2023-04-25T05:04:56;101122.28;;;5.05;100.00
74065;BME280;62421;51.412;5.432;2023-04-25T05:07:21;101130.22;;;5.07;100.00
74065;BME280;62421;51.412;5.432;2023-04-25T05:09:47;101136.28;;;5.10;100.00
74065;BME280;62421;51.412;5.432;2023-04-25T05:12:12;101137.88;;;5.15;100.00
74065;BME280;62421;51.412;5.432;2023-04-25T05:14:37;101138.00;;;5.11;100.00
74065;BME280;62421;51.412;5.432;2023-04-25T05:17:03;101135.53;;;5.07;100.00
74065;BME280;62421;51.412;5.432;2023-04-25T05:19:33;101141.84;;;5.04;100.00
74065;BME280;62421;51.412;5.432;2023-04-25T05:21:58;101154.22;;;5.05;100.00
74065;BME280;62421;51.412;5.432;2023-04-25T05:24:23;101149.66;;;5.09;100.00
74065;BME280;62421;51.412;5.432;2023-04-25T05:26:49;101148.53;;;5.15;100.00
74065;BME280;62421;51.412;5.432;2023-04-25T05:29:14;101160.59;;;5.23;100.00
74065;BME280;62421;51.412;5.432;2023-04-25T05:31:40;101157.66;;;5.29;100.00
74065;BME280;62421;51.412;5.432;2023-04-25T05:34:05;101147.81;;;5.31;100.00
74065;BME280;62421;51.412;5.432;2023-04-25T05:36:31;101153.78;;;5.37;100.00
74065;BME280;62421;51.412;5.432;2023-04-25T05:38:57;101158.00;;;5.42;100.00
74065;BME280;62421;51.412;5.432;2023-04-25T05:41:23;101154.06;;;5.51;100.00
74065;BME280;62421;51.412;5.432;2023-04-25T05:43:48;101155.38;;;5.61;100.00
74065;BME280;62421;51.412;5.432;2023-04-25T05:46:15;101165.53;;;5.72;100.00
74065;BME280;62421;51.412;5.432;2023-04-25T05:48:43;101164.47;;;5.76;100.00
74065;BME280;62421;51.412;5.432;2023-04-25T05:51:08;101170.59;;;5.78;100.00
74065;BME280;62421;51.412;5.432;2023-04-25T05:53:34;101173.34;;;5.77;100.00
74065;BME280;62421;51.412;5.432;2023-04-25T05:55:59;101168.81;;;5.79;100.00
74065;BME280;62421;51.412;5.432;2023-04-25T05:58:25;101177.25;;;5.88;100.00
74065;BME280;62421;51.412;5.432;2023-04-25T06:00:50;101183.78;;;6.02;100.00
74065;BME280;62421;51.412;5.432;2023-04-25T06:03:15;101180.00;;;6.07;100.00
74065;BME280;62421;51.412;5.432;2023-04-25T06:05:41;101180.50;;;6.15;100.00
74065;BME280;62421;51.412;5.432;2023-04-25T06:08:08;101190.94;;;6.20;100.00
74065;BME280;62421;51.412;5.432;2023-04-25T06:10:33;101192.44;;;6.26;100.00
74065;BME280;62421;51.412;5.432;2023-04-25T06:12:58;101187.06;;;6.27;100.00
74065;BME280;62421;51.412;5.432;2023-04-25T06:15:24;101193.97;;;6.31;98.46
74065;BME280;62421;51.412;5.432;2023-04-25T06:17:49;101194.78;;;6.33;97.83
74065;BME280;62421;51.412;5.432;2023-04-25T06:20:15;101194.56;;;6.38;97.84
74065;BME280;62421;51.412;5.432;2023-04-25T06:22:40;101200.25;;;6.49;96.20
74065;BME280;62421;51.412;5.432;2023-04-25T06:25:06;101192.03;;;6.54;96.57
74065;BME280;62421;51.412;5.432;2023-04-25T06:27:33;101195.28;;;6.61;95.91
74065;BME280;62421;51.412;5.432;2023-04-25T06:29:58;101185.53;;;6.60;95.30
74065;BME280;62421;51.412;5.432;2023-04-25T06:32:23;101200.69;;;6.59;94.92
74065;BME280;62421;51.412;5.432;2023-04-25T06:34:49;101196.06;;;6.63;94.33
74065;BME280;62421;51.412;5.432;2023-04-25T06:37:14;101198.28;;;6.72;95.10
74065;BME280;62421;51.412;5.432;2023-04-25T06:39:39;101207.88;;;6.76;91.99
74065;BME280;62421;51.412;5.432;2023-04-25T06:42:05;101210.03;;;6.68;91.64
74065;BME280;62421;51.412;5.432;2023-04-25T06:44:30;101214.94;;;6.58;88.21
74065;BME280;62421;51.412;5.432;2023-04-25T06:46:55;101215.16;;;6.53;90.59
74065;BME280;62421;51.412;5.432;2023-04-25T06:49:21;101223.03;;;6.56;90.73
74065;BME280;62421;51.412;5.432;2023-04-25T06:51:47;101230.66;;;6.64;91.92
74065;BME280;62421;51.412;5.432;2023-04-25T06:54:12;101219.66;;;6.72;88.64
74065;BME280;62421;51.412;5.432;2023-04-25T06:56:37;101226.13;;;6.66;89.11
74065;BME280;62421;51.412;5.432;2023-04-25T06:59:03;101229.69;;;6.67;85.13
74065;BME280;62421;51.412;5.432;2023-04-25T07:01:28;101229.47;;;6.52;85.46
74065;BME280;62421;51.412;5.432;2023-04-25T07:03:53;101238.47;;;6.50;86.52
74065;BME280;62421;51.412;5.432;2023-04-25T07:06:19;101230.53;;;6.48;86.09
74065;BME280;62421;51.412;5.432;2023-04-25T07:08:44;101232.47;;;6.45;82.56
74065;BME280;62421;51.412;5.432;2023-04-25T07:11:09;101246.03;;;6.40;81.78
74065;BME280;62421;51.412;5.432;2023-04-25T07:13:35;101242.34;;;6.43;80.57
74065;BME280;62421;51.412;5.432;2023-04-25T07:16:00;101242.50;;;6.40;79.49
74065;BME280;62421;51.412;5.432;2023-04-25T07:18:25;101252.09;;;6.44;81.74
74065;BME280;62421;51.412;5.432;2023-04-25T07:20:51;101250.94;;;6.49;80.53
74065;BME280;62421;51.412;5.432;2023-04-25T07:23:16;101250.53;;;6.59;79.07
74065;BME280;62421;51.412;5.432;2023-04-25T07:25:41;101249.44;;;6.63;76.58
74065;BME280;62421;51.412;5.432;2023-04-25T07:28:07;101253.81;;;6.64;76.42
74065;BME280;62421;51.412;5.432;2023-04-25T07:30:32;101254.47;;;6.69;77.29
74065;BME280;62421;51.412;5.432;2023-04-25T07:32:59;101242.50;;;6.78;76.22
74065;BME280;62421;51.412;5.432;2023-04-25T07:35:25;101257.41;;;6.82;73.91
74065;BME280;62421;51.412;5.432;2023-04-25T07:37:50;101251.78;;;6.88;75.22
74065;BME280;62421;51.412;5.432;2023-04-25T07:40:16;101250.47;;;6.96;73.06
74065;BME280;62421;51.412;5.432;2023-04-25T07:42:41;101255.28;;;7.07;72.87
74065;BME280;62421;51.412;5.432;2023-04-25T07:45:07;101264.81;;;7.13;71.64
74065;BME280;62421;51.412;5.432;2023-04-25T07:47:34;101262.94;;;7.15;72.43
74065;BME280;62421;51.412;5.432;2023-04-25T07:49:59;101269.13;;;7.15;70.17
74065;BME280;62421;51.412;5.432;2023-04-25T07:52:25;101267.44;;;7.14;70.38
74065;BME280;62421;51.412;5.432;2023-04-25T07:54:50;101264.22;;;7.25;70.96
74065;BME280;62421;51.412;5.432;2023-04-25T07:57:16;101266.75;;;7.46;71.46
74065;BME280;62421;51.412;5.432;2023-04-25T07:59:42;101275.97;;;7.75;68.28
74065;BME280;62421;51.412;5.432;2023-04-25T08:02:07;101274.78;;;7.80;66.89
74065;BME280;62421;51.412;5.432;2023-04-25T08:04:33;101279.13;;;7.83;68.08
74065;BME280;62421;51.412;5.432;2023-04-25T08:06:58;101288.72;;;7.87;65.62
74065;BME280;62421;51.412;5.432;2023-04-25T08:09:23;101282.09;;;7.77;67.55
74065;BME280;62421;51.412;5.432;2023-04-25T08:11:49;101296.50;;;7.92;67.75
74065;BME280;62421;51.412;5.432;2023-04-25T08:14:14;101277.19;;;8.20;66.54
74065;BME280;62421;51.412;5.432;2023-04-25T08:16:40;101294.81;;;8.42;64.88
74065;BME280;62421;51.412;5.432;2023-04-25T08:19:05;101286.66;;;8.43;65.88
74065;BME280;62421;51.412;5.432;2023-04-25T08:21:31;101304.22;;;8.49;64.34
74065;BME280;62421;51.412;5.432;2023-04-25T08:23:57;101309.50;;;8.50;65.22
74065;BME280;62421;51.412;5.432;2023-04-25T08:26:23;101311.53;;;8.45;65.07
74065;BME280;62421;51.412;5.432;2023-04-25T08:28:50;101314.22;;;8.28;65.33
74065;BME280;62421;51.412;5.432;2023-04-25T08:31:15;101311.66;;;8.09;65.08
74065;BME280;62421;51.412;5.432;2023-04-25T08:33:41;101327.00;;;7.88;66.35
74065;BME280;62421;51.412;5.432;2023-04-25T08:36:06;101336.44;;;7.77;67.48
74065;BME280;62421;51.412;5.432;2023-04-25T08:38:31;101328.78;;;7.70;67.70
74065;BME280;62421;51.412;5.432;2023-04-25T08:40:59;101337.84;;;7.67;68.22
74065;BME280;62421;51.412;5.432;2023-04-25T08:43:26;101341.22;;;7.71;69.36
74065;BME280;62421;51.412;5.432;2023-04-25T08:45:52;101341.16;;;7.90;69.18
74065;BME280;62421;51.412;5.432;2023-04-25T08:48:19;101338.31;;;8.10;67.51
74065;BME280;62421;51.412;5.432;2023-04-25T08:53:14;101352.00;;;8.39;70.38
74065;BME280;62421;51.412;5.432;2023-04-25T08:55:46;101354.13;;;8.50;68.46
74065;BME280;62421;51.412;5.432;2023-04-25T08:58:13;101352.16;;;8.53;68.98
74065;BME280;62421;51.412;5.432;2023-04-25T09:00:38;101367.06;;;8.75;68.23
74065;BME280;62421;51.412;5.432;2023-04-25T09:03:04;101373.84;;;8.98;64.68
74065;BME280;62421;51.412;5.432;2023-04-25T09:05:29;101379.91;;;9.17;64.31
74065;BME280;62421;51.412;5.432;2023-04-25T09:07:55;101374.13;;;9.25;63.70
74065;BME280;62421;51.412;5.432;2023-04-25T09:10:22;101382.06;;;9.11;63.77
74065;BME280;62421;51.412;5.432;2023-04-25T09:13:07;101387.34;;;9.12;64.55
74065;BME280;62421;51.412;5.432;2023-04-25T09:15:50;101377.41;;;9.14;64.33
74065;BME280;62421;51.412;5.432;2023-04-25T09:21:04;101398.66;;;9.33;62.59
74065;BME280;62421;51.412;5.432;2023-04-25T09:23:30;101390.38;;;9.22;61.64
74065;BME280;62421;51.412;5.432;2023-04-25T09:25:58;101396.50;;;9.08;61.54
74065;BME280;62421;51.412;5.432;2023-04-25T09:28:24;101399.84;;;9.12;64.89
74065;BME280;62421;51.412;5.432;2023-04-25T09:30:55;101400.56;;;9.31;60.79
74065;BME280;62421;51.412;5.432;2023-04-25T09:33:27;101401.72;;;9.27;60.54
74065;BME280;62421;51.412;5.432;2023-04-25T09:35:53;101410.53;;;9.29;59.72
74065;BME280;62421;51.412;5.432;2023-04-25T09:38:20;101414.69;;;9.51;59.40
74065;BME280;62421;51.412;5.432;2023-04-25T09:40:48;101405.81;;;9.80;60.37
74065;BME280;62421;51.412;5.432;2023-04-25T09:43:24;101401.66;;;9.91;59.02
74065;BME280;62421;51.412;5.432;2023-04-25T09:45:54;101409.78;;;9.89;54.57
74065;BME280;62421;51.412;5.432;2023-04-25T09:48:23;101412.41;;;9.75;56.19
74065;BME280;62421;51.412;5.432;2023-04-25T09:51:09;101412.69;;;9.70;58.60
74065;BME280;62421;51.412;5.432;2023-04-25T09:53:40;101427.22;;;9.66;58.29
74065;BME280;62421;51.412;5.432;2023-04-25T09:56:08;101415.88;;;9.45;56.94
74065;BME280;62421;51.412;5.432;2023-04-25T09:58:35;101426.94;;;9.55;56.58
74065;BME280;62421;51.412;5.432;2023-04-25T10:01:06;101422.44;;;9.39;60.17
74065;BME280;62421;51.412;5.432;2023-04-25T10:03:34;101425.19;;;9.22;57.31
74065;BME280;62421;51.412;5.432;2023-04-25T10:06:07;101421.78;;;8.87;58.97
74065;BME280;62421;51.412;5.432;2023-04-25T10:08:34;101424.28;;;8.90;58.89
74065;BME280;62421;51.412;5.432;2023-04-25T10:11:03;101414.03;;;8.98;57.30
74065;BME280;62421;51.412;5.432;2023-04-25T10:13:30;101427.47;;;8.96;57.64
74065;BME280;62421;51.412;5.432;2023-04-25T10:16:00;101423.09;;;8.95;57.85
74065;BME280;62421;51.412;5.432;2023-04-25T10:18:26;101434.34;;;9.02;58.07
74065;BME280;62421;51.412;5.432;2023-04-25T10:20:57;101419.97;;;9.03;57.85
74065;BME280;62421;51.412;5.432;2023-04-25T10:23:24;101409.63;;;9.13;58.42
74065;BME280;62421;51.412;5.432;2023-04-25T10:25:51;101410.69;;;9.58;61.67
74065;BME280;62421;51.412;5.432;2023-04-25T10:28:17;101409.88;;;9.88;58.89
74065;BME280;62421;51.412;5.432;2023-04-25T10:31:03;101417.25;;;9.84;58.49
74065;BME280;62421;51.412;5.432;2023-04-25T10:33:36;101411.63;;;9.73;56.32
74065;BME280;62421;51.412;5.432;2023-04-25T10:36:15;101430.16;;;9.61;54.71
74065;BME280;62421;51.412;5.432;2023-04-25T10:38:43;101422.19;;;9.60;55.83
74065;BME280;62421;51.412;5.432;2023-04-25T10:41:09;101424.34;;;9.69;56.45
74065;BME280;62421;51.412;5.432;2023-04-25T10:46:02;101415.41;;;10.00;54.26
74065;BME280;62421;51.412;5.432;2023-04-25T10:48:29;101426.56;;;9.93;54.04
74065;BME280;62421;51.412;5.432;2023-04-25T10:51:11;101429.78;;;9.83;55.42
74065;BME280;62421;51.412;5.432;2023-04-25T10:53:37;101425.97;;;9.88;52.05
74065;BME280;62421;51.412;5.432;2023-04-25T10:56:10;101428.66;;;9.88;53.70
74065;BME280;62421;51.412;5.432;2023-04-25T10:58:36;101427.38;;;9.79;52.65
74065;BME280;62421;51.412;5.432;2023-04-25T11:01:01;101428.16;;;9.65;52.95
74065;BME280;62421;51.412;5.432;2023-04-25T11:03:27;101426.88;;;9.40;56.53
74065;BME280;62421;51.412;5.432;2023-04-25T11:05:52;101416.91;;;9.27;59.49
74065;BME280;62421;51.412;5.432;2023-04-25T11:08:29;101438.88;;;9.33;60.35
74065;BME280;62421;51.412;5.432;2023-04-25T11:10:59;101427.38;;;9.31;57.05
74065;BME280;62421;51.412;5.432;2023-04-25T11:13:29;101425.56;;;9.48;58.10
74065;BME280;62421;51.412;5.432;2023-04-25T11:15:55;101429.59;;;9.87;55.74
74065;BME280;62421;51.412;5.432;2023-04-25T11:18:20;101424.97;;;10.20;55.53
74065;BME280;62421;51.412;5.432;2023-04-25T11:20:47;101425.50;;;10.72;57.44
74065;BME280;62421;51.412;5.432;2023-04-25T11:23:13;101419.25;;;11.14;56.70
74065;BME280;62421;51.412;5.432;2023-04-25T11:25:40;101433.06;;;11.37;54.32
74065;BME280;62421;51.412;5.432;2023-04-25T11:28:05;101430.38;;;11.22;53.90
74065;BME280;62421;51.412;5.432;2023-04-25T11:30:31;101424.25;;;10.92;55.70
74065;BME280;62421;51.412;5.432;2023-04-25T11:32:56;101430.81;;;10.57;54.11
74065;BME280;62421;51.412;5.432;2023-04-25T11:35:21;101436.28;;;10.25;54.89
74065;BME280;62421;51.412;5.432;2023-04-25T11:37:48;101437.44;;;10.05;56.26
74065;BME280;62421;51.412;5.432;2023-04-25T11:40:14;101448.81;;;9.95;57.10
74065;BME280;62421;51.412;5.432;2023-04-25T11:42:44;101456.44;;;9.71;58.43
74065;BME280;62421;51.412;5.432;2023-04-25T11:45:10;101467.94;;;9.57;59.00
74065;BME280;62421;51.412;5.432;2023-04-25T11:47:36;101485.59;;;9.12;60.88
74065;BME280;62421;51.412;5.432;2023-04-25T11:50:03;101465.22;;;8.92;61.55
74065;BME280;62421;51.412;5.432;2023-04-25T11:52:40;101475.31;;;9.04;60.82
74065;BME280;62421;51.412;5.432;2023-04-25T11:55:16;101477.97;;;9.04;59.65
74065;BME280;62421;51.412;5.432;2023-04-25T11:57:43;101464.34;;;9.25;60.85
74065;BME280;62421;51.412;5.432;2023-04-25T12:00:12;101472.00;;;9.48;58.69
74065;BME280;62421;51.412;5.432;2023-04-25T12:02:50;101470.78;;;9.70;59.28
74065;BME280;62421;51.412;5.432;2023-04-25T12:05:16;101466.03;;;9.91;55.39
74065;BME280;62421;51.412;5.432;2023-04-25T12:07:42;101474.28;;;9.88;55.85
74065;BME280;62421;51.412;5.432;2023-04-25T12:10:08;101472.19;;;9.93;56.72
74065;BME280;62421;51.412;5.432;2023-04-25T12:12:35;101468.88;;;10.03;55.80
74065;BME280;62421;51.412;5.432;2023-04-25T12:17:49;101483.69;;;9.95;58.68
74065;BME280;62421;51.412;5.432;2023-04-25T12:20:16;101486.88;;;10.01;54.94
74065;BME280;62421;51.412;5.432;2023-04-25T12:22:45;101482.31;;;9.88;54.39
74065;BME280;62421;51.412;5.432;2023-04-25T12:25:12;101496.16;;;9.80;54.88
74065;BME280;62421;51.412;5.432;2023-04-25T12:27:38;101487.41;;;9.76;53.35
74065;BME280;62421;51.412;5.432;2023-04-25T12:30:08;101490.72;;;9.81;54.39
74065;BME280;62421;51.412;5.432;2023-04-25T12:32:35;101486.19;;;9.98;55.11
74065;BME280;62421;51.412;5.432;2023-04-25T12:35:01;101485.91;;;10.18;53.41
74065;BME280;62421;51.412;5.432;2023-04-25T12:37:28;101483.81;;;10.23;54.11
74065;BME280;62421;51.412;5.432;2023-04-25T12:39:53;101490.06;;;10.24;53.35
74065;BME280;62421;51.412;5.432;2023-04-25T12:42:19;101489.94;;;10.25;53.99
74065;BME280;62421;51.412;5.432;2023-04-25T12:44:44;101482.06;;;10.38;52.82
74065;BME280;62421;51.412;5.432;2023-04-25T12:47:10;101485.59;;;10.55;56.00
74065;BME280;62421;51.412;5.432;2023-04-25T12:49:35;101476.63;;;10.84;54.69
74065;BME280;62421;51.412;5.432;2023-04-25T12:52:01;101483.84;;;10.98;55.82
74065;BME280;62421;51.412;5.432;2023-04-25T12:54:26;101493.25;;;10.91;51.74
74065;BME280;62421;51.412;5.432;2023-04-25T12:56:51;101499.72;;;10.73;50.71
74065;BME280;62421;51.412;5.432;2023-04-25T12:59:17;101487.59;;;10.51;50.36
74065;BME280;62421;51.412;5.432;2023-04-25T13:01:43;101502.19;;;10.31;53.29